createdAt,value
2019-04-26T00:00:33.782Z,0.00
2019-04-26T00:01:33.782Z,0.00
2019-04-26T00:02:33.762Z,0.00
2019-04-26T00:03:33.748Z,0.00
2019-04-26T00:04:33.732Z,0.00
2019-04-26T00:05:36.591Z,0.00
2019-04-26T00:06:34.051Z,0.00
2019-04-26T00:07:34.201Z,0.00
2019-04-26T00:08:33.703Z,0.00
2019-04-26T00:09:33.681Z,0.00
2019-04-26T00:10:33.682Z,0.00
2019-04-26T00:11:34.015Z,0.00
2019-04-26T00:12:33.691Z,0.00
2019-04-26T00:13:33.651Z,0.00
2019-04-26T00:14:33.640Z,0.00
2019-04-26T00:15:33.612Z,0.00
2019-04-26T00:16:33.602Z,0.00
2019-04-26T00:17:33.642Z,0.00
2019-04-26T00:18:33.581Z,0.00
2019-04-26T00:19:33.580Z,0.00
2019-04-26T00:20:33.564Z,0.00
2019-04-26T00:21:33.549Z,0.00
2019-04-26T00:22:33.553Z,0.00
2019-04-26T00:23:33.879Z,0.00
2019-04-26T00:24:33.542Z,0.00
2019-04-26T00:25:33.511Z,0.00
2019-04-26T00:26:33.492Z,0.00
2019-04-26T00:27:33.499Z,0.00
2019-04-26T00:28:33.486Z,0.00
2019-04-26T00:29:33.527Z,0.00
2019-04-26T00:30:33.451Z,0.00
2019-04-26T00:31:33.442Z,0.00
2019-04-26T00:32:33.451Z,0.00
2019-04-26T00:33:33.426Z,0.00
2019-04-26T00:34:33.423Z,0.00
2019-04-26T00:35:33.741Z,0.00
2019-04-26T00:36:33.400Z,0.00
2019-04-26T00:37:33.380Z,0.00
2019-04-26T00:38:33.361Z,0.00
2019-04-26T00:39:33.366Z,0.00
2019-04-26T00:40:33.351Z,0.00
2019-04-26T00:41:33.631Z,0.00
2019-04-26T00:42:33.620Z,0.00
2019-04-26T00:43:33.310Z,0.00
2019-04-26T00:44:33.301Z,0.00
2019-04-26T00:45:33.291Z,0.00
2019-04-26T00:46:33.290Z,0.00
2019-04-26T00:47:33.303Z,0.00
2019-04-26T00:48:33.265Z,0.00
2019-04-26T00:49:43.089Z,0.00
2019-04-26T00:50:34.241Z,0.00
2019-04-26T00:51:33.243Z,0.00
2019-04-26T00:52:33.234Z,0.00
2019-04-26T00:53:33.334Z,0.00
2019-04-26T00:54:33.240Z,0.00
2019-04-26T00:55:33.179Z,0.00
2019-04-26T00:56:33.462Z,0.00
2019-04-26T00:57:33.173Z,0.00
2019-04-26T00:58:33.636Z,0.00
2019-04-26T00:59:33.291Z,0.00
2019-04-26T01:00:33.139Z,0.00
2019-04-26T01:01:33.110Z,0.00
2019-04-26T01:02:33.270Z,0.00
2019-04-26T01:03:33.450Z,0.00
2019-04-26T01:04:33.202Z,0.00
2019-04-26T01:05:33.138Z,0.00
2019-04-26T01:06:33.078Z,0.00
2019-04-26T01:07:33.050Z,0.00
2019-04-26T01:08:33.050Z,0.00
2019-04-26T01:09:33.051Z,0.00
2019-04-26T01:10:33.313Z,0.00
2019-04-26T01:11:33.057Z,0.00
2019-04-26T01:12:33.011Z,0.00
2019-04-26T01:13:33.001Z,0.00
2019-04-26T01:14:32.979Z,0.00
2019-04-26T01:15:32.960Z,0.00
2019-04-26T01:16:32.961Z,0.00
2019-04-26T01:17:33.472Z,0.00
2019-04-26T01:18:32.930Z,0.00
2019-04-26T01:19:32.956Z,0.00
2019-04-26T01:20:32.912Z,0.00
2019-04-26T01:21:32.899Z,0.00
2019-04-26T01:22:32.912Z,0.00
2019-04-26T01:23:32.928Z,0.00
2019-04-26T01:24:33.157Z,0.00
2019-04-26T01:25:32.851Z,0.00
2019-04-26T01:26:33.560Z,0.00
2019-04-26T01:27:32.838Z,0.00
2019-04-26T01:28:32.819Z,0.00
2019-04-26T01:29:32.866Z,0.00
2019-04-26T01:30:32.807Z,0.00
2019-04-26T01:31:32.804Z,0.00
2019-04-26T01:32:32.783Z,0.00
2019-04-26T01:33:32.759Z,0.00
2019-04-26T01:34:32.749Z,0.00
2019-04-26T01:35:32.818Z,0.00
2019-04-26T01:36:32.732Z,0.00
2019-04-26T01:37:33.019Z,0.00
2019-04-26T01:38:32.709Z,0.00
2019-04-26T01:39:32.709Z,0.00
2019-04-26T01:40:32.698Z,0.00
2019-04-26T01:41:32.718Z,0.00
2019-04-26T01:42:32.827Z,0.00
2019-04-26T01:43:32.844Z,0.00
2019-04-26T01:44:33.063Z,0.00
2019-04-26T01:45:32.651Z,0.00
2019-04-26T01:46:32.808Z,0.00
2019-04-26T01:47:32.851Z,0.00
2019-04-26T01:48:32.738Z,0.00
2019-04-26T01:49:32.884Z,0.00
2019-04-26T01:50:32.669Z,0.00
2019-04-26T01:51:32.971Z,0.00
2019-04-26T01:52:32.694Z,0.00
2019-04-26T01:53:33.056Z,0.00
2019-04-26T01:54:32.556Z,0.00
2019-04-26T01:55:32.539Z,0.00
2019-04-26T01:56:32.518Z,0.00
2019-04-26T01:57:32.509Z,0.00
2019-04-26T01:58:32.801Z,0.00
2019-04-26T01:59:32.537Z,0.00
2019-04-26T02:03:19.231Z,0.00
2019-04-26T02:04:17.318Z,0.00
2019-04-26T02:05:17.309Z,0.00
2019-04-26T02:06:25.299Z,0.00
2019-04-26T02:07:18.287Z,0.00
2019-04-26T02:08:17.260Z,0.00
2019-04-26T02:09:17.587Z,0.00
2019-04-26T02:10:17.259Z,0.00
2019-04-26T02:11:17.247Z,0.00
2019-04-26T02:12:17.227Z,0.00
2019-04-26T02:13:17.229Z,0.00
2019-04-26T02:14:18.094Z,0.00
2019-04-26T02:15:17.247Z,0.00
2019-04-26T02:16:17.188Z,0.00
2019-04-26T02:17:17.185Z,0.00
2019-04-26T02:18:17.167Z,0.00
2019-04-26T02:19:17.156Z,0.00
2019-04-26T02:20:17.147Z,0.00
2019-04-26T02:21:17.508Z,0.00
2019-04-26T02:22:17.137Z,0.00
2019-04-26T02:23:17.116Z,0.00
2019-04-26T02:24:17.115Z,0.00
2019-04-26T02:25:17.097Z,0.00
2019-04-26T02:26:17.085Z,0.00
2019-04-26T02:27:17.116Z,0.00
2019-04-26T02:28:17.376Z,0.00
2019-04-26T02:29:17.057Z,0.00
2019-04-26T02:30:17.049Z,0.00
2019-04-26T02:31:17.035Z,0.00
2019-04-26T02:32:17.017Z,0.00
2019-04-26T02:33:17.052Z,0.00
2019-04-26T02:34:16.998Z,0.00
2019-04-26T02:35:17.311Z,0.00
2019-04-26T02:36:16.987Z,0.00
2019-04-26T02:37:16.966Z,0.00
2019-04-26T02:38:16.957Z,0.00
2019-04-26T02:39:17.795Z,0.00
2019-04-26T02:40:16.953Z,0.00
2019-04-26T02:41:16.928Z,0.00
2019-04-26T02:42:17.215Z,0.00
2019-04-26T02:43:16.949Z,0.00
2019-04-26T02:44:16.895Z,0.00
2019-04-26T02:45:16.923Z,0.00
2019-04-26T02:46:16.865Z,0.00
2019-04-26T02:47:16.857Z,0.00
2019-04-26T02:48:16.863Z,0.00
2019-04-26T02:49:17.147Z,0.00
2019-04-26T02:50:16.847Z,0.00
2019-04-26T02:51:16.891Z,0.00
2019-04-26T02:52:16.808Z,0.00
2019-04-26T02:53:16.794Z,0.00
2019-04-26T02:54:16.784Z,0.00
2019-04-26T02:55:16.782Z,0.00
2019-04-26T02:56:17.065Z,0.00
2019-04-26T02:57:17.024Z,0.00
2019-04-26T02:58:16.743Z,0.00
2019-04-26T02:59:16.743Z,0.00
2019-04-26T03:00:16.995Z,0.00
2019-04-26T03:01:17.022Z,0.00
2019-04-26T03:02:16.704Z,0.00
2019-04-26T03:03:16.734Z,0.00
2019-04-26T03:04:16.673Z,0.00
2019-04-26T03:05:16.683Z,0.00
2019-04-26T03:06:16.660Z,0.00
2019-04-26T03:07:16.743Z,0.00
2019-04-26T03:08:16.712Z,0.00
2019-04-26T03:09:17.275Z,0.00
2019-04-26T03:10:16.614Z,0.00
2019-04-26T03:11:17.389Z,0.00
2019-04-26T03:12:16.585Z,0.00
2019-04-26T03:13:16.573Z,0.00
2019-04-26T03:14:16.573Z,0.00
2019-04-26T03:15:16.624Z,0.00
2019-04-26T03:16:17.740Z,0.00
2019-04-26T03:17:16.533Z,0.00
2019-04-26T03:18:16.523Z,0.00
2019-04-26T03:19:16.512Z,0.00
2019-04-26T03:20:16.513Z,0.00
2019-04-26T03:21:16.523Z,0.00
2019-04-26T03:22:16.482Z,0.00
2019-04-26T03:23:16.774Z,0.00
2019-04-26T03:24:16.465Z,0.00
2019-04-26T03:25:16.449Z,0.00
2019-04-26T03:26:16.441Z,0.00
2019-04-26T03:27:16.464Z,0.00
2019-04-26T03:28:16.427Z,0.00
2019-04-26T03:29:16.411Z,0.00
2019-04-26T03:30:21.542Z,0.00
2019-04-26T03:31:17.731Z,0.00
2019-04-26T03:32:17.257Z,0.00
2019-04-26T03:33:16.911Z,0.00
2019-04-26T03:34:16.758Z,0.00
2019-04-26T03:35:16.345Z,0.00
2019-04-26T03:36:16.350Z,0.00
2019-04-26T03:37:20.611Z,0.00
2019-04-26T03:38:16.310Z,0.00
2019-04-26T03:39:16.340Z,0.00
2019-04-26T03:40:16.291Z,0.00
2019-04-26T03:41:16.273Z,0.00
2019-04-26T03:42:16.263Z,0.00
2019-04-26T03:43:16.265Z,0.00
2019-04-26T03:44:16.547Z,0.00
2019-04-26T03:45:16.271Z,0.00
2019-04-26T03:46:16.226Z,0.00
2019-04-26T03:47:16.211Z,0.00
2019-04-26T03:48:16.200Z,0.00
2019-04-26T03:49:16.190Z,0.00
2019-04-26T03:50:16.193Z,0.00
2019-04-26T03:51:16.650Z,0.00
2019-04-26T03:52:16.157Z,0.00
2019-04-26T03:53:16.148Z,0.00
2019-04-26T03:54:16.140Z,0.00
2019-04-26T03:55:16.129Z,0.00
2019-04-26T03:56:16.126Z,0.00
2019-04-26T03:57:16.155Z,0.00
2019-04-26T03:58:16.407Z,0.00
2019-04-26T03:59:16.087Z,0.00
2019-04-26T04:00:16.070Z,0.00
2019-04-26T04:01:16.060Z,0.00
2019-04-26T04:02:16.050Z,0.00
2019-04-26T04:03:16.079Z,0.00
2019-04-26T04:04:16.039Z,0.00
2019-04-26T04:05:16.330Z,0.00
2019-04-26T04:06:16.011Z,0.00
2019-04-26T04:07:15.999Z,0.00
2019-04-26T04:08:16.000Z,0.00
2019-04-26T04:09:18.025Z,0.00
2019-04-26T04:10:15.960Z,0.00
2019-04-26T04:11:15.949Z,0.00
2019-04-26T04:12:16.299Z,0.00
2019-04-26T04:13:15.929Z,5.62
2019-04-26T04:14:15.974Z,5.62
2019-04-26T04:15:15.958Z,5.62
2019-04-26T04:16:15.898Z,5.62
2019-04-26T04:17:15.892Z,5.62
2019-04-26T04:18:15.889Z,5.62
2019-04-26T04:19:16.241Z,11.25
2019-04-26T04:20:15.865Z,11.25
2019-04-26T04:21:15.886Z,11.25
2019-04-26T04:22:15.828Z,11.25
2019-04-26T04:23:15.818Z,11.25
2019-04-26T04:24:15.825Z,11.25
2019-04-26T04:25:15.841Z,11.25
2019-04-26T04:26:16.261Z,11.25
2019-04-26T04:27:15.856Z,16.88
2019-04-26T04:28:15.767Z,16.88
2019-04-26T04:29:15.757Z,16.88
2019-04-26T04:30:15.746Z,16.88
2019-04-26T04:31:15.738Z,16.88
2019-04-26T04:32:15.725Z,16.88
2019-04-26T04:33:15.746Z,16.88
2019-04-26T04:34:15.697Z,22.50
2019-04-26T04:35:15.687Z,22.50
2019-04-26T04:36:15.679Z,22.50
2019-04-26T04:37:15.668Z,28.12
2019-04-26T04:38:15.657Z,28.12
2019-04-26T04:39:15.976Z,28.12
2019-04-26T04:40:15.661Z,28.12
2019-04-26T04:41:15.634Z,28.12
2019-04-26T04:42:15.624Z,28.12
2019-04-26T04:43:15.721Z,28.12
2019-04-26T04:44:15.595Z,28.12
2019-04-26T04:45:15.657Z,28.12
2019-04-26T04:46:15.719Z,28.12
2019-04-26T04:47:24.169Z,28.12
2019-04-26T04:48:16.556Z,28.12
2019-04-26T04:49:15.544Z,28.12
2019-04-26T04:50:15.525Z,33.75
2019-04-26T04:51:15.853Z,33.75
2019-04-26T04:52:15.516Z,33.75
2019-04-26T04:53:15.497Z,33.75
2019-04-26T04:54:15.486Z,39.38
2019-04-26T04:55:15.475Z,39.38
2019-04-26T04:56:15.465Z,39.38
2019-04-26T04:57:15.494Z,45.00
2019-04-26T04:58:15.447Z,45.00
2019-04-26T04:59:15.435Z,45.00
2019-04-26T05:00:15.427Z,39.38
2019-04-26T05:01:15.414Z,39.38
2019-04-26T05:02:15.415Z,39.38
2019-04-26T05:03:15.674Z,39.38
2019-04-26T05:04:15.385Z,39.38
2019-04-26T05:05:15.376Z,39.38
2019-04-26T05:06:15.384Z,39.38
2019-04-26T05:07:15.727Z,39.38
2019-04-26T05:08:15.443Z,33.75
2019-04-26T05:09:15.694Z,33.75
2019-04-26T05:10:15.341Z,33.75
2019-04-26T05:11:15.313Z,39.38
2019-04-26T05:12:15.293Z,39.38
2019-04-26T05:13:15.291Z,39.38
2019-04-26T05:14:15.274Z,45.00
2019-04-26T05:15:15.323Z,50.62
2019-04-26T05:16:17.186Z,50.62
2019-04-26T05:17:15.253Z,56.25
2019-04-26T05:18:15.233Z,61.88
2019-04-26T05:19:15.233Z,61.88
2019-04-26T05:20:15.206Z,61.88
2019-04-26T05:21:15.253Z,61.88
2019-04-26T05:22:15.185Z,61.88
2019-04-26T05:23:15.462Z,61.88
2019-04-26T05:24:15.163Z,61.88
2019-04-26T05:25:15.153Z,61.88
2019-04-26T05:26:15.147Z,61.88
2019-04-26T05:27:15.190Z,61.88
2019-04-26T05:28:15.132Z,61.88
2019-04-26T05:29:15.111Z,61.88
2019-04-26T05:30:15.382Z,61.88
2019-04-26T05:31:15.412Z,61.88
2019-04-26T05:32:15.089Z,61.88
2019-04-26T05:33:15.104Z,56.25
2019-04-26T05:34:15.055Z,61.88
2019-04-26T05:35:15.042Z,61.88
2019-04-26T05:36:15.031Z,56.25
2019-04-26T05:37:15.461Z,56.25
2019-04-26T05:38:18.671Z,56.25
2019-04-26T05:39:15.056Z,50.62
2019-04-26T05:40:15.029Z,50.62
2019-04-26T05:41:15.040Z,56.25
2019-04-26T05:42:14.998Z,56.25
2019-04-26T05:43:14.970Z,56.25
2019-04-26T05:44:15.231Z,56.25
2019-04-26T05:45:15.731Z,56.25
2019-04-26T05:46:14.922Z,56.25
2019-04-26T05:47:14.917Z,56.25
2019-04-26T05:48:14.901Z,61.88
2019-04-26T05:49:14.890Z,61.88
2019-04-26T05:50:14.881Z,61.88
2019-04-26T05:51:15.191Z,61.88
2019-04-26T05:52:15.622Z,61.88
2019-04-26T05:53:14.858Z,61.88
2019-04-26T05:54:14.921Z,67.50
2019-04-26T05:55:14.829Z,61.88
2019-04-26T05:56:14.819Z,61.88
2019-04-26T05:57:15.122Z,61.88
2019-04-26T05:58:15.830Z,56.25
2019-04-26T05:59:14.790Z,50.62
2019-04-26T06:00:14.799Z,50.62
2019-04-26T06:01:14.770Z,50.62
2019-04-26T06:02:14.760Z,50.62
2019-04-26T06:03:14.780Z,50.62
2019-04-26T06:04:14.741Z,45.00
2019-04-26T06:05:15.021Z,50.62
2019-04-26T06:06:14.730Z,45.00
2019-04-26T06:07:14.709Z,45.00
2019-04-26T06:08:14.762Z,50.62
2019-04-26T06:09:14.775Z,50.62
2019-04-26T06:10:14.679Z,50.62
2019-04-26T06:11:14.662Z,50.62
2019-04-26T06:12:14.939Z,45.00
2019-04-26T06:13:14.639Z,45.00
2019-04-26T06:14:14.639Z,45.00
2019-04-26T06:15:14.669Z,45.00
2019-04-26T06:16:14.610Z,50.62
2019-04-26T06:17:14.606Z,56.25
2019-04-26T06:18:14.633Z,50.62
2019-04-26T06:19:14.587Z,45.00
2019-04-26T06:20:22.887Z,56.25
2019-04-26T06:21:15.598Z,50.62
2019-04-26T06:22:14.548Z,45.00
2019-04-26T06:23:14.538Z,45.00
2019-04-26T06:24:14.531Z,50.62
2019-04-26T06:25:14.828Z,56.25
2019-04-26T06:26:14.507Z,56.25
2019-04-26T06:27:14.579Z,61.88
2019-04-26T06:28:14.677Z,67.50
2019-04-26T06:29:14.476Z,67.50
2019-04-26T06:30:14.498Z,67.50
2019-04-26T06:31:14.463Z,67.50
2019-04-26T06:32:14.438Z,67.50
2019-04-26T06:33:15.269Z,67.50
2019-04-26T06:34:15.257Z,67.50
2019-04-26T06:35:14.414Z,67.50
2019-04-26T06:36:14.461Z,67.50
2019-04-26T06:37:14.668Z,67.50
2019-04-26T06:38:14.387Z,67.50
2019-04-26T06:39:15.251Z,67.50
2019-04-26T06:40:14.359Z,67.50
2019-04-26T06:41:14.344Z,67.50
2019-04-26T06:42:15.187Z,67.50
2019-04-26T06:43:14.917Z,67.50
2019-04-26T06:44:14.309Z,67.50
2019-04-26T06:45:14.347Z,67.50
2019-04-26T06:46:15.048Z,73.12
2019-04-26T06:47:14.278Z,73.12
2019-04-26T06:48:14.281Z,78.75
2019-04-26T06:49:14.266Z,84.38
2019-04-26T06:50:15.046Z,90.00
2019-04-26T06:51:24.033Z,90.00
2019-04-26T06:52:15.226Z,90.00
2019-04-26T06:53:14.218Z,84.38
2019-04-26T06:54:14.218Z,84.38
2019-04-26T06:55:14.667Z,78.75
2019-04-26T06:56:14.198Z,78.75
2019-04-26T06:57:15.351Z,67.50
2019-04-26T06:58:15.025Z,67.50
2019-04-26T06:59:14.146Z,73.12
2019-04-26T07:00:14.182Z,67.50
2019-04-26T07:01:14.858Z,67.50
2019-04-26T07:02:15.365Z,73.12
2019-04-26T07:03:14.203Z,73.12
2019-04-26T07:04:14.096Z,67.50
2019-04-26T07:05:15.346Z,67.50
2019-04-26T07:06:14.074Z,73.12
2019-04-26T07:07:14.079Z,84.38
2019-04-26T07:08:14.061Z,84.38
2019-04-26T07:09:14.436Z,95.62
2019-04-26T07:10:14.035Z,101.25
2019-04-26T07:11:14.020Z,112.50
2019-04-26T07:12:14.014Z,118.12
2019-04-26T07:13:14.862Z,123.75
2019-04-26T07:14:14.014Z,129.38
2019-04-26T07:15:14.034Z,123.75
2019-04-26T07:16:22.454Z,118.12
2019-04-26T07:17:14.958Z,112.50
2019-04-26T07:18:14.454Z,129.38
2019-04-26T07:19:13.938Z,135.00
2019-04-26T07:20:13.924Z,135.00
2019-04-26T07:21:14.535Z,129.38
2019-04-26T07:22:13.903Z,129.38
2019-04-26T07:23:14.365Z,129.38
2019-04-26T07:24:13.922Z,129.38
2019-04-26T07:25:13.874Z,118.12
2019-04-26T07:26:14.012Z,112.50
2019-04-26T07:27:13.955Z,123.75
2019-04-26T07:28:14.670Z,118.12
2019-04-26T07:29:13.853Z,112.50
2019-04-26T07:30:13.860Z,118.12
2019-04-26T07:31:13.843Z,118.12
2019-04-26T07:32:13.825Z,112.50
2019-04-26T07:33:13.874Z,106.88
2019-04-26T07:34:14.480Z,95.62
2019-04-26T07:35:13.787Z,90.00
2019-04-26T07:36:13.766Z,95.62
2019-04-26T07:37:13.840Z,95.62
2019-04-26T07:38:13.767Z,95.62
2019-04-26T07:39:19.918Z,95.62
2019-04-26T07:40:14.712Z,101.25
2019-04-26T07:41:13.763Z,118.12
2019-04-26T07:42:14.110Z,118.12
2019-04-26T07:43:13.727Z,129.38
2019-04-26T07:44:13.801Z,118.12
2019-04-26T07:45:13.963Z,129.38
2019-04-26T07:46:13.663Z,140.62
2019-04-26T07:47:14.355Z,135.00
2019-04-26T07:48:14.599Z,135.00
2019-04-26T07:49:13.652Z,140.62
2019-04-26T07:50:14.174Z,140.62
2019-04-26T07:51:13.806Z,146.25
2019-04-26T07:52:13.762Z,146.25
2019-04-26T07:53:13.625Z,146.25
2019-04-26T07:54:15.036Z,146.25
2019-04-26T07:55:13.561Z,146.25
2019-04-26T07:56:13.662Z,140.62
2019-04-26T07:57:13.616Z,151.88
2019-04-26T07:58:13.550Z,157.50
2019-04-26T07:59:13.512Z,163.12
2019-04-26T08:00:13.555Z,157.50
2019-04-26T08:01:14.157Z,163.12
2019-04-26T08:02:13.488Z,168.75
2019-04-26T08:03:13.542Z,168.75
2019-04-26T08:04:13.984Z,168.75
2019-04-26T08:05:13.581Z,157.50
2019-04-26T08:06:13.694Z,140.62
2019-04-26T08:07:13.478Z,135.00
2019-04-26T08:08:14.930Z,140.62
2019-04-26T08:09:26.631Z,151.88
2019-04-26T08:10:14.723Z,151.88
2019-04-26T08:11:13.464Z,168.75
2019-04-26T08:12:14.141Z,174.38
2019-04-26T08:13:13.391Z,174.38
2019-04-26T08:14:13.362Z,180.00
2019-04-26T08:15:13.770Z,196.88
2019-04-26T08:16:14.762Z,174.38
2019-04-26T08:17:14.857Z,174.38
2019-04-26T08:18:15.243Z,157.50
2019-04-26T08:19:16.072Z,157.50
2019-04-26T08:20:15.486Z,168.75
2019-04-26T08:21:17.787Z,163.12
2019-04-26T08:22:20.382Z,140.62
2019-04-26T08:23:34.967Z,135.00
2019-04-26T08:24:14.251Z,135.00
2019-04-26T08:25:13.260Z,123.75
2019-04-26T08:26:13.486Z,112.50
2019-04-26T08:27:21.143Z,106.88
2019-04-26T08:28:14.344Z,101.25
2019-04-26T08:29:13.214Z,90.00
2019-04-26T08:30:16.104Z,84.38
2019-04-26T08:31:15.558Z,78.75
2019-04-26T08:32:15.619Z,73.12
2019-04-26T08:33:14.657Z,61.88
2019-04-26T08:34:14.346Z,61.88
2019-04-26T08:35:17.211Z,61.88
2019-04-26T08:36:14.729Z,67.50
2019-04-26T08:37:13.130Z,73.12
2019-04-26T08:38:19.500Z,84.38
2019-04-26T08:39:14.118Z,84.38
2019-04-26T08:40:21.598Z,78.75
2019-04-26T08:41:14.103Z,78.75
2019-04-26T08:42:20.520Z,73.12
2019-04-26T08:43:14.142Z,67.50
2019-04-26T08:44:13.070Z,73.12
2019-04-26T08:45:14.931Z,84.38
2019-04-26T08:46:13.183Z,84.38
2019-04-26T08:47:18.807Z,84.38
2019-04-26T08:48:15.138Z,78.75
2019-04-26T08:49:13.159Z,84.38
2019-04-26T08:50:13.661Z,84.38
2019-04-26T08:51:19.787Z,84.38
2019-04-26T08:52:14.905Z,73.12
2019-04-26T08:53:12.967Z,67.50
2019-04-26T08:54:12.937Z,67.50
2019-04-26T08:55:13.008Z,73.12
2019-04-26T08:56:15.261Z,78.75
2019-04-26T08:57:12.938Z,95.62
2019-04-26T08:58:13.742Z,95.62
2019-04-26T08:59:12.916Z,95.62
2019-04-26T09:00:15.440Z,90.00
2019-04-26T09:01:13.004Z,101.25
2019-04-26T09:02:13.489Z,101.25
2019-04-26T09:03:12.884Z,101.25
2019-04-26T09:04:12.894Z,106.88
2019-04-26T09:05:13.248Z,123.75
2019-04-26T09:06:12.807Z,140.62
2019-04-26T09:07:12.898Z,180.00
2019-04-26T09:08:12.786Z,253.12
2019-04-26T09:09:14.306Z,247.50
2019-04-26T09:10:14.409Z,309.38
2019-04-26T09:11:22.777Z,219.38
2019-04-26T09:12:22.907Z,225.00
2019-04-26T09:13:13.807Z,247.50
2019-04-26T09:14:13.317Z,399.38
2019-04-26T09:15:13.600Z,219.38
2019-04-26T09:16:13.473Z,196.88
2019-04-26T09:17:13.777Z,174.38
2019-04-26T09:18:13.767Z,174.38
2019-04-26T09:19:15.042Z,180.00
2019-04-26T09:20:12.656Z,180.00
2019-04-26T09:21:13.289Z,185.62
2019-04-26T09:22:13.603Z,174.38
2019-04-26T09:23:12.626Z,157.50
2019-04-26T09:24:12.627Z,157.50
2019-04-26T09:25:12.646Z,151.88
2019-04-26T09:26:13.686Z,140.62
2019-04-26T09:27:12.586Z,140.62
2019-04-26T09:28:12.584Z,135.00
2019-04-26T09:29:12.905Z,123.75
2019-04-26T09:30:12.567Z,106.88
2019-04-26T09:31:15.378Z,101.25
2019-04-26T09:32:13.547Z,95.62
2019-04-26T09:33:12.668Z,84.38
2019-04-26T09:34:13.055Z,78.75
2019-04-26T09:35:15.189Z,78.75
2019-04-26T09:36:13.749Z,78.75
2019-04-26T09:37:14.606Z,84.38
2019-04-26T09:38:12.944Z,90.00
2019-04-26T09:39:12.470Z,95.62
2019-04-26T09:40:21.077Z,101.25
2019-04-26T09:41:13.469Z,106.88
2019-04-26T09:42:12.445Z,95.62
2019-04-26T09:43:15.042Z,112.50
2019-04-26T09:44:13.425Z,118.12
2019-04-26T09:45:12.436Z,129.38
2019-04-26T09:46:12.384Z,140.62
2019-04-26T09:47:12.398Z,146.25
2019-04-26T09:48:12.414Z,146.25
2019-04-26T09:49:12.989Z,135.00
2019-04-26T09:50:15.420Z,129.38
2019-04-26T09:51:12.810Z,135.00
2019-04-26T09:52:12.815Z,168.75
2019-04-26T09:53:14.265Z,168.75
2019-04-26T09:54:15.430Z,185.62
2019-04-26T09:55:14.844Z,196.88
2019-04-26T09:56:13.024Z,196.88
2019-04-26T09:57:12.805Z,191.25
2019-04-26T09:58:13.025Z,185.62
2019-04-26T09:59:12.256Z,168.75
2019-04-26T10:00:14.357Z,151.88
2019-04-26T10:01:12.411Z,140.62
2019-04-26T10:02:12.906Z,129.38
2019-04-26T10:03:13.035Z,112.50
2019-04-26T10:04:12.225Z,90.00
2019-04-26T10:05:13.548Z,78.75
2019-04-26T10:06:13.845Z,73.12
2019-04-26T10:07:13.744Z,61.88
2019-04-26T10:08:12.810Z,50.62
2019-04-26T10:09:12.976Z,50.62
2019-04-26T10:10:22.317Z,56.25
2019-04-26T10:11:13.134Z,61.88
2019-04-26T10:12:12.594Z,67.50
2019-04-26T10:13:14.911Z,67.50
2019-04-26T10:14:12.166Z,67.50
2019-04-26T10:15:12.093Z,61.88
2019-04-26T10:16:12.086Z,56.25
2019-04-26T10:17:15.819Z,61.88
2019-04-26T10:18:13.357Z,67.50
2019-04-26T10:19:12.063Z,67.50
2019-04-26T10:20:12.043Z,73.12
2019-04-26T10:21:12.032Z,78.75
2019-04-26T10:22:12.003Z,78.75
2019-04-26T10:23:11.999Z,73.12
2019-04-26T10:24:12.482Z,78.75
2019-04-26T10:25:16.599Z,78.75
2019-04-26T10:26:11.993Z,78.75
2019-04-26T10:27:12.972Z,84.38
2019-04-26T10:28:15.883Z,84.38
2019-04-26T10:29:11.946Z,84.38
2019-04-26T10:30:12.824Z,84.38
2019-04-26T10:31:13.484Z,78.75
2019-04-26T10:32:21.869Z,78.75
2019-04-26T10:33:13.144Z,78.75
2019-04-26T10:34:13.690Z,73.12
2019-04-26T10:35:12.731Z,73.12
2019-04-26T10:36:11.932Z,67.50
2019-04-26T10:37:12.352Z,73.12
2019-04-26T10:38:11.845Z,67.50
2019-04-26T10:39:11.833Z,61.88
2019-04-26T10:40:11.920Z,50.62
2019-04-26T10:41:11.802Z,50.62
2019-04-26T10:42:11.883Z,45.00
2019-04-26T10:43:11.801Z,45.00
2019-04-26T10:44:11.814Z,50.62
2019-04-26T10:45:14.707Z,50.62
2019-04-26T10:46:11.762Z,50.62
2019-04-26T10:47:11.743Z,50.62
2019-04-26T10:48:13.979Z,56.25
2019-04-26T10:49:12.156Z,61.88
2019-04-26T10:50:11.711Z,67.50
2019-04-26T10:51:11.711Z,67.50
2019-04-26T10:52:12.034Z,73.12
2019-04-26T10:53:11.769Z,73.12
2019-04-26T10:54:12.042Z,67.50
2019-04-26T10:55:12.268Z,67.50
2019-04-26T10:56:12.215Z,61.88
2019-04-26T10:57:11.835Z,56.25
2019-04-26T10:58:12.104Z,56.25
2019-04-26T10:59:11.660Z,61.88
2019-04-26T11:00:14.086Z,61.88
2019-04-26T11:01:12.586Z,67.50
2019-04-26T11:02:11.590Z,73.12
2019-04-26T11:03:11.602Z,84.38
2019-04-26T11:04:11.606Z,90.00
2019-04-26T11:05:18.136Z,95.62
2019-04-26T11:06:12.638Z,90.00
2019-04-26T11:07:11.546Z,90.00
2019-04-26T11:08:11.513Z,84.38
2019-04-26T11:09:12.131Z,84.38
2019-04-26T11:10:11.911Z,84.38
2019-04-26T11:11:13.229Z,84.38
2019-04-26T11:12:12.930Z,90.00
2019-04-26T11:13:12.161Z,84.38
2019-04-26T11:14:13.768Z,84.38
2019-04-26T11:15:11.972Z,73.12
2019-04-26T11:16:12.213Z,67.50
2019-04-26T11:17:16.025Z,61.88
2019-04-26T11:18:13.317Z,56.25
2019-04-26T11:19:11.401Z,50.62
2019-04-26T11:20:12.046Z,45.00
2019-04-26T11:21:11.369Z,39.38
2019-04-26T11:22:11.360Z,39.38
2019-04-26T11:23:12.913Z,39.38
2019-04-26T11:24:15.181Z,39.38
2019-04-26T11:25:12.668Z,45.00
2019-04-26T11:26:11.640Z,50.62
2019-04-26T11:27:11.931Z,61.88
2019-04-26T11:28:12.456Z,67.50
2019-04-26T11:29:11.289Z,73.12
2019-04-26T11:30:18.831Z,90.00
2019-04-26T11:31:12.554Z,101.25
2019-04-26T11:32:11.369Z,123.75
2019-04-26T11:33:12.771Z,135.00
2019-04-26T11:34:14.201Z,146.25
2019-04-26T11:35:11.399Z,151.88
2019-04-26T11:36:11.577Z,151.88
2019-04-26T11:37:13.470Z,151.88
2019-04-26T11:38:12.196Z,151.88
2019-04-26T11:39:11.455Z,146.25
2019-04-26T11:40:14.504Z,146.25
2019-04-26T11:41:11.787Z,146.25
2019-04-26T11:42:11.743Z,151.88
2019-04-26T11:43:11.534Z,146.25
2019-04-26T11:44:11.117Z,140.62
2019-04-26T11:45:14.611Z,123.75
2019-04-26T11:46:11.137Z,112.50
2019-04-26T11:47:11.607Z,101.25
2019-04-26T11:48:12.131Z,95.62
2019-04-26T11:49:13.571Z,101.25
2019-04-26T11:50:16.074Z,106.88
2019-04-26T11:51:14.570Z,123.75
2019-04-26T11:52:18.697Z,140.62
2019-04-26T11:53:11.341Z,157.50
2019-04-26T11:54:12.271Z,163.12
2019-04-26T11:55:11.137Z,163.12
2019-04-26T11:56:11.701Z,151.88
2019-04-26T11:57:12.113Z,146.25
2019-04-26T11:58:10.986Z,129.38
2019-04-26T11:59:10.956Z,118.12
2019-04-26T12:00:12.591Z,112.50
2019-04-26T12:01:11.356Z,106.88
2019-04-26T12:02:12.238Z,106.88
2019-04-26T12:03:11.918Z,106.88
2019-04-26T12:04:11.701Z,112.50
2019-04-26T12:05:10.897Z,123.75
2019-04-26T12:06:10.966Z,135.00
2019-04-26T12:07:10.875Z,129.38
2019-04-26T12:08:12.337Z,118.12
2019-04-26T12:09:10.867Z,112.50
2019-04-26T12:10:11.369Z,112.50
2019-04-26T12:11:18.265Z,106.88
2019-04-26T12:12:13.073Z,106.88
2019-04-26T12:13:10.841Z,112.50
2019-04-26T12:14:20.239Z,118.12
2019-04-26T12:15:12.241Z,118.12
2019-04-26T12:16:14.550Z,129.38
2019-04-26T12:17:11.795Z,123.75
2019-04-26T12:18:11.182Z,129.38
2019-04-26T12:19:14.311Z,129.38
2019-04-26T12:20:11.766Z,129.38
2019-04-26T12:21:11.119Z,129.38
2019-04-26T12:22:11.065Z,129.38
2019-04-26T12:23:13.651Z,129.38
2019-04-26T12:24:12.296Z,123.75
2019-04-26T12:25:10.702Z,112.50
2019-04-26T12:26:10.920Z,106.88
2019-04-26T12:27:10.993Z,101.25
2019-04-26T12:28:11.241Z,101.25
2019-04-26T12:29:53.562Z,101.25
2019-04-26T12:30:11.776Z,95.62
2019-04-26T12:31:10.619Z,90.00
2019-04-26T12:32:10.609Z,84.38
2019-04-26T12:33:10.591Z,90.00
2019-04-26T12:34:14.101Z,95.62
2019-04-26T12:35:12.002Z,106.88
2019-04-26T12:36:13.445Z,118.12
2019-04-26T12:37:12.533Z,135.00
2019-04-26T12:38:11.594Z,146.25
2019-04-26T12:39:10.885Z,151.88
2019-04-26T12:40:11.366Z,140.62
2019-04-26T12:41:12.145Z,118.12
2019-04-26T12:42:14.426Z,95.62
2019-04-26T12:43:11.695Z,84.38
2019-04-26T12:44:10.484Z,73.12
2019-04-26T12:45:12.285Z,67.50
2019-04-26T12:46:14.187Z,61.88
2019-04-26T12:47:10.695Z,56.25
2019-04-26T12:48:12.359Z,45.00
2019-04-26T12:49:11.431Z,39.38
2019-04-26T12:50:10.848Z,28.12
2019-04-26T12:51:12.101Z,28.12
2019-04-26T12:52:11.333Z,28.12
2019-04-26T12:53:10.693Z,33.75
2019-04-26T12:54:11.503Z,56.25
2019-04-26T12:55:13.720Z,78.75
2019-04-26T12:56:13.226Z,84.38
2019-04-26T12:57:11.053Z,90.00